sensor_id;sensor_type;location;lat;lon;timestamp;pressure;altitude;pressure_sealevel;temperature;humidity
44309;BME280;30022;55.846;37.340;2023-02-20T00:00:42;49227.81;;;-143.51;100.00
44309;BME280;30022;55.846;37.340;2023-02-20T00:03:08;49225.84;;;-143.51;100.00
44309;BME280;30022;55.846;37.340;2023-02-20T00:05:33;49164.59;;;-143.51;100.00
44309;BME280;30022;55.846;37.340;2023-02-20T00:07:59;49212.00;;;-143.51;100.00
44309;BME280;30022;55.846;37.340;2023-02-20T00:10:25;49022.31;;;-143.51;100.00
44309;BME280;30022;55.846;37.340;2023-02-20T00:12:51;48965.00;;;-143.51;100.00
44309;BME280;30022;55.846;37.340;2023-02-20T00:15:17;48893.88;;;-143.51;100.00
44309;BME280;30022;55.846;37.340;2023-02-20T00:17:46;48933.38;;;-143.51;100.00
44309;BME280;30022;55.846;37.340;2023-02-20T00:20:15;48959.06;;;-143.51;100.00
44309;BME280;30022;55.846;37.340;2023-02-20T00:22:41;48966.97;;;-143.51;100.00
44309;BME280;30022;55.846;37.340;2023-02-20T00:25:07;49028.22;;;-143.51;100.00
44309;BME280;30022;55.846;37.340;2023-02-20T00:27:32;49032.19;;;-143.51;100.00
44309;BME280;30022;55.846;37.340;2023-02-20T00:29:58;48927.47;;;-143.51;100.00
44309;BME280;30022;55.846;37.340;2023-02-20T00:32:23;48945.25;;;-143.51;100.00
44309;BME280;30022;55.846;37.340;2023-02-20T00:34:49;48864.22;;;-143.51;100.00
44309;BME280;30022;55.846;37.340;2023-02-20T00:37:15;48866.19;;;-143.51;100.00
44309;BME280;30022;55.846;37.340;2023-02-20T00:39:40;48917.56;;;-143.51;100.00
44309;BME280;30022;55.846;37.340;2023-02-20T00:42:06;48870.16;;;-143.51;100.00
44309;BME280;30022;55.846;37.340;2023-02-20T00:44:32;48743.69;;;-143.51;100.00
44309;BME280;30022;55.846;37.340;2023-02-20T00:46:57;48658.72;;;-143.51;100.00
44309;BME280;30022;55.846;37.340;2023-02-20T00:49:23;48534.25;;;-143.51;100.00
44309;BME280;30022;55.846;37.340;2023-02-20T00:51:48;48561.91;;;-143.51;100.00
44309;BME280;30022;55.846;37.340;2023-02-20T00:54:14;48542.16;;;-143.51;100.00
44309;BME280;30022;55.846;37.340;2023-02-20T00:56:40;48589.56;;;-143.51;100.00
44309;BME280;30022;55.846;37.340;2023-02-20T00:59:06;48490.78;;;-143.51;100.00
44309;BME280;30022;55.846;37.340;2023-02-20T01:01:35;48524.38;;;-143.51;100.00
44309;BME280;30022;55.846;37.340;2023-02-20T01:04:05;48542.16;;;-143.51;100.00
44309;BME280;30022;55.846;37.340;2023-02-20T01:06:31;48399.91;;;-143.51;100.00
44309;BME280;30022;55.846;37.340;2023-02-20T01:08:56;48370.25;;;-143.51;100.00
44309;BME280;30022;55.846;37.340;2023-02-20T01:11:22;48303.09;;;-143.51;100.00
44309;BME280;30022;55.846;37.340;2023-02-20T01:13:47;48230.00;;;-143.51;100.00
44309;BME280;30022;55.846;37.340;2023-02-20T01:16:13;48259.63;;;-143.51;100.00
44309;BME280;30022;55.846;37.340;2023-02-20T01:18:41;48409.78;;;-143.51;100.00
44309;BME280;30022;55.846;37.340;2023-02-20T01:21:06;48449.28;;;-143.51;100.00
44309;BME280;30022;55.846;37.340;2023-02-20T01:23:32;48542.16;;;-143.51;100.00
44309;BME280;30022;55.846;37.340;2023-02-20T01:25:58;48550.06;;;-143.51;100.00
44309;BME280;30022;55.846;37.340;2023-02-20T01:28:23;48463.13;;;-143.51;100.00
44309;BME280;30022;55.846;37.340;2023-02-20T01:30:49;48419.66;;;-143.51;100.00
44309;BME280;30022;55.846;37.340;2023-02-20T01:33:14;48439.41;;;-143.51;100.00
44309;BME280;30022;55.846;37.340;2023-02-20T01:35:40;48378.16;;;-143.51;100.00
44309;BME280;30022;55.846;37.340;2023-02-20T01:38:06;48376.19;;;-143.51;100.00
44309;BME280;30022;55.846;37.340;2023-02-20T01:40:32;48249.75;;;-143.51;100.00
44309;BME280;30022;55.846;37.340;2023-02-20T01:43:00;48301.13;;;-143.51;100.00
44309;BME280;30022;55.846;37.340;2023-02-20T01:45:27;48277.41;;;-143.51;100.00
44309;BME280;30022;55.846;37.340;2023-02-20T01:47:54;48277.41;;;-143.51;100.00
44309;BME280;30022;55.846;37.340;2023-02-20T01:50:25;48283.34;;;-143.51;100.00
44309;BME280;30022;55.846;37.340;2023-02-20T01:52:52;48305.06;;;-143.51;100.00
44309;BME280;30022;55.846;37.340;2023-02-20T01:55:20;48188.50;;;-143.51;100.00
44309;BME280;30022;55.846;37.340;2023-02-20T01:57:50;48212.22;;;-143.51;100.00
44309;BME280;30022;55.846;37.340;2023-02-20T02:00:19;48218.13;;;-143.51;100.00
44309;BME280;30022;55.846;37.340;2023-02-20T02:03:05;48064.03;;;-143.51;100.00
44309;BME280;30022;55.846;37.340;2023-02-20T02:05:31;48093.69;;;-143.51;100.00
44309;BME280;30022;55.846;37.340;2023-02-20T02:07:59;48139.13;;;-143.51;100.00
44309;BME280;30022;55.846;37.340;2023-02-20T02:10:29;48257.66;;;-143.51;100.00
44309;BME280;30022;55.846;37.340;2023-02-20T02:12:56;48180.59;;;-143.51;100.00
44309;BME280;30022;55.846;37.340;2023-02-20T02:15:22;48186.53;;;-143.51;100.00
44309;BME280;30022;55.846;37.340;2023-02-20T02:44:20;48259.63;;;-143.51;100.00
44309;BME280;30022;55.846;37.340;2023-02-20T02:46:52;48368.28;;;-143.51;100.00
44309;BME280;30022;55.846;37.340;2023-02-20T02:51:49;48399.91;;;-143.51;100.00
44309;BME280;30022;55.846;37.340;2023-02-20T02:54:18;48295.19;;;-143.51;100.00
44309;BME280;30022;55.846;37.340;2023-02-20T02:56:47;48212.22;;;-143.51;100.00
44309;BME280;30022;55.846;37.340;2023-02-20T02:59:14;48105.53;;;-143.51;100.00
44309;BME280;30022;55.846;37.340;2023-02-20T03:01:44;48164.78;;;-143.51;100.00
44309;BME280;30022;55.846;37.340;2023-02-20T03:04:12;48267.53;;;-143.51;100.00
44309;BME280;30022;55.846;37.340;2023-02-20T03:06:40;48334.69;;;-143.51;100.00
44309;BME280;30022;55.846;37.340;2023-02-20T03:09:09;48273.47;;;-143.51;100.00
44309;BME280;30022;55.846;37.340;2023-02-20T03:11:35;48044.28;;;-143.51;100.00
44309;BME280;30022;55.846;37.340;2023-02-20T03:17:06;47977.13;;;-143.51;100.00
44309;BME280;30022;55.846;37.340;2023-02-20T03:19:40;47990.94;;;-143.51;100.00
44309;BME280;30022;55.846;37.340;2023-02-20T03:22:09;48115.41;;;-143.51;100.00
44309;BME280;30022;55.846;37.340;2023-02-20T03:24:36;48253.69;;;-143.51;100.00
44309;BME280;30022;55.846;37.340;2023-02-20T03:27:33;48245.78;;;-143.51;100.00
44309;BME280;30022;55.846;37.340;2023-02-20T03:30:05;48305.06;;;-143.51;100.00
44309;BME280;30022;55.846;37.340;2023-02-20T03:32:32;48235.91;;;-143.51;100.00
44309;BME280;30022;55.846;37.340;2023-02-20T03:35:16;48150.97;;;-143.51;100.00
44309;BME280;30022;55.846;37.340;2023-02-20T03:38:02;48162.81;;;-143.51;100.00
44309;BME280;30022;55.846;37.340;2023-02-20T03:40:49;48081.81;;;-143.51;100.00
44309;BME280;30022;55.846;37.340;2023-02-20T03:43:34;48101.56;;;-143.51;100.00
44309;BME280;30022;55.846;37.340;2023-02-20T03:46:05;48109.47;;;-143.51;100.00
44309;BME280;30022;55.846;37.340;2023-02-20T03:48:41;48143.06;;;-143.51;100.00
44309;BME280;30022;55.846;37.340;2023-02-20T03:51:08;48212.22;;;-143.51;100.00
44309;BME280;30022;55.846;37.340;2023-02-20T03:54:00;48131.22;;;-143.51;100.00
44309;BME280;30022;55.846;37.340;2023-02-20T03:56:27;48079.84;;;-143.51;100.00
44309;BME280;30022;55.846;37.340;2023-02-20T03:58:57;48006.75;;;-143.51;100.00
44309;BME280;30022;55.846;37.340;2023-02-20T04:01:24;48075.91;;;-143.51;100.00
44309;BME280;30022;55.846;37.340;2023-02-20T04:03:53;48028.47;;;-143.51;100.00
44309;BME280;30022;55.846;37.340;2023-02-20T04:06:21;48056.13;;;-143.51;100.00
44309;BME280;30022;55.846;37.340;2023-02-20T04:09:06;48085.78;;;-143.51;100.00
44309;BME280;30022;55.846;37.340;2023-02-20T04:14:05;48012.69;;;-143.51;100.00
44309;BME280;30022;55.846;37.340;2023-02-20T04:16:33;48068.00;;;-143.51;100.00
44309;BME280;30022;55.846;37.340;2023-02-20T04:19:00;48154.91;;;-143.51;100.00
44309;BME280;30022;55.846;37.340;2023-02-20T04:23:56;48263.56;;;-143.51;100.00
44309;BME280;30022;55.846;37.340;2023-02-20T04:26:26;48245.78;;;-143.51;100.00
44309;BME280;30022;55.846;37.340;2023-02-20T04:28:52;48218.13;;;-143.51;100.00
44309;BME280;30022;55.846;37.340;2023-02-20T04:31:19;48115.41;;;-143.51;100.00
44309;BME280;30022;55.846;37.340;2023-02-20T04:33:46;48150.97;;;-143.51;100.00
44309;BME280;30022;55.846;37.340;2023-02-20T04:36:17;48091.69;;;-143.51;100.00
44309;BME280;30022;55.846;37.340;2023-02-20T04:38:43;48068.00;;;-143.51;100.00
44309;BME280;30022;55.846;37.340;2023-02-20T04:41:12;48081.81;;;-143.51;100.00
44309;BME280;30022;55.846;37.340;2023-02-20T04:43:39;48069.97;;;-143.51;100.00
44309;BME280;30022;55.846;37.340;2023-02-20T04:46:05;48152.94;;;-143.51;100.00
44309;BME280;30022;55.846;37.340;2023-02-20T04:48:32;48178.63;;;-143.51;100.00
44309;BME280;30022;55.846;37.340;2023-02-20T04:50:59;48143.06;;;-143.51;100.00
44309;BME280;30022;55.846;37.340;2023-02-20T04:53:25;48267.53;;;-143.51;100.00
44309;BME280;30022;55.846;37.340;2023-02-20T04:55:52;48285.31;;;-143.51;100.00
44309;BME280;30022;55.846;37.340;2023-02-20T04:58:21;48354.47;;;-143.51;100.00
44309;BME280;30022;55.846;37.340;2023-02-20T05:00:53;48257.66;;;-143.51;100.00
44309;BME280;30022;55.846;37.340;2023-02-20T05:03:18;48143.06;;;-143.51;100.00
44309;BME280;30022;55.846;37.340;2023-02-20T05:05:44;48097.63;;;-143.51;100.00
44309;BME280;30022;55.846;37.340;2023-02-20T05:08:11;48121.34;;;-143.51;100.00
44309;BME280;30022;55.846;37.340;2023-02-20T05:10:39;48202.34;;;-143.51;100.00
44309;BME280;30022;55.846;37.340;2023-02-20T05:13:05;48299.13;;;-143.51;100.00
44309;BME280;30022;55.846;37.340;2023-02-20T05:15:32;48289.25;;;-143.51;100.00
44309;BME280;30022;55.846;37.340;2023-02-20T05:17:58;48376.19;;;-143.51;100.00
44309;BME280;30022;55.846;37.340;2023-02-20T05:20:24;48344.56;;;-143.51;100.00
44309;BME280;30022;55.846;37.340;2023-02-20T05:23:09;48064.03;;;-143.51;100.00
44309;BME280;30022;55.846;37.340;2023-02-20T05:25:35;48115.41;;;-143.51;100.00
44309;BME280;30022;55.846;37.340;2023-02-20T05:28:00;48040.34;;;-143.51;100.00
44309;BME280;30022;55.846;37.340;2023-02-20T05:30:26;48056.13;;;-143.51;100.00
44309;BME280;30022;55.846;37.340;2023-02-20T05:32:51;48133.19;;;-143.51;100.00
44309;BME280;30022;55.846;37.340;2023-02-20T05:35:17;48111.44;;;-143.51;100.00
44309;BME280;30022;55.846;37.340;2023-02-20T05:37:43;48135.16;;;-143.51;100.00
44309;BME280;30022;55.846;37.340;2023-02-20T05:40:08;48212.22;;;-143.51;100.00
44309;BME280;30022;55.846;37.340;2023-02-20T05:42:34;48245.78;;;-143.51;100.00
44309;BME280;30022;55.846;37.340;2023-02-20T05:45:00;48356.44;;;-143.51;100.00
44309;BME280;30022;55.846;37.340;2023-02-20T05:47:26;48220.13;;;-143.51;100.00
44309;BME280;30022;55.846;37.340;2023-02-20T05:49:52;48231.97;;;-143.51;100.00
44309;BME280;30022;55.846;37.340;2023-02-20T05:52:17;48269.50;;;-143.51;100.00
44309;BME280;30022;55.846;37.340;2023-02-20T05:54:44;48143.06;;;-143.51;100.00
44309;BME280;30022;55.846;37.340;2023-02-20T05:57:10;48062.06;;;-143.51;100.00
44309;BME280;30022;55.846;37.340;2023-02-20T05:59:37;48060.09;;;-143.51;100.00
44309;BME280;30022;55.846;37.340;2023-02-20T06:02:03;47959.34;;;-143.51;100.00
44309;BME280;30022;55.846;37.340;2023-02-20T06:04:29;47996.88;;;-143.51;100.00
44309;BME280;30022;55.846;37.340;2023-02-20T06:06:54;48119.34;;;-143.51;100.00
44309;BME280;30022;55.846;37.340;2023-02-20T06:09:20;48164.78;;;-143.51;100.00
44309;BME280;30022;55.846;37.340;2023-02-20T06:11:53;48115.41;;;-143.51;100.00
44309;BME280;30022;55.846;37.340;2023-02-20T06:14:20;48228.00;;;-143.51;100.00
44309;BME280;30022;55.846;37.340;2023-02-20T06:16:46;48253.69;;;-143.51;100.00
44309;BME280;30022;55.846;37.340;2023-02-20T06:19:16;48145.03;;;-143.51;100.00
44309;BME280;30022;55.846;37.340;2023-02-20T06:21:45;48182.56;;;-143.51;100.00
44309;BME280;30022;55.846;37.340;2023-02-20T06:24:11;48198.38;;;-143.51;100.00
44309;BME280;30022;55.846;37.340;2023-02-20T06:26:40;48249.75;;;-143.51;100.00
44309;BME280;30022;55.846;37.340;2023-02-20T06:29:06;48307.03;;;-143.51;100.00
44309;BME280;30022;55.846;37.340;2023-02-20T06:31:31;48190.47;;;-143.51;100.00
44309;BME280;30022;55.846;37.340;2023-02-20T06:33:57;48172.69;;;-143.51;100.00
44309;BME280;30022;55.846;37.340;2023-02-20T06:36:24;48101.56;;;-143.51;100.00
44309;BME280;30022;55.846;37.340;2023-02-20T06:38:50;48044.28;;;-143.51;100.00
44309;BME280;30022;55.846;37.340;2023-02-20T06:41:16;48119.34;;;-143.51;100.00
44309;BME280;30022;55.846;37.340;2023-02-20T06:43:42;48107.50;;;-143.51;100.00
44309;BME280;30022;55.846;37.340;2023-02-20T06:46:07;48097.63;;;-143.51;100.00
44309;BME280;30022;55.846;37.340;2023-02-20T06:48:33;48097.63;;;-143.51;100.00
44309;BME280;30022;55.846;37.340;2023-02-20T06:50:59;48022.56;;;-143.51;100.00
44309;BME280;30022;55.846;37.340;2023-02-20T06:53:24;48012.69;;;-143.51;100.00
44309;BME280;30022;55.846;37.340;2023-02-20T06:55:50;47913.91;;;-143.51;100.00
44309;BME280;30022;55.846;37.340;2023-02-20T06:58:15;47992.91;;;-143.51;100.00
44309;BME280;30022;55.846;37.340;2023-02-20T07:00:41;47838.84;;;-143.51;100.00
44309;BME280;30022;55.846;37.340;2023-02-20T07:03:07;47906.00;;;-143.51;100.00
44309;BME280;30022;55.846;37.340;2023-02-20T07:05:32;47953.41;;;-143.51;100.00
44309;BME280;30022;55.846;37.340;2023-02-20T07:07:58;47973.16;;;-143.51;100.00
44309;BME280;30022;55.846;37.340;2023-02-20T07:10:24;48107.50;;;-143.51;100.00
44309;BME280;30022;55.846;37.340;2023-02-20T07:12:49;48111.44;;;-143.51;100.00
44309;BME280;30022;55.846;37.340;2023-02-20T07:15:15;47971.19;;;-143.51;100.00
44309;BME280;30022;55.846;37.340;2023-02-20T07:17:41;47906.00;;;-143.51;100.00
44309;BME280;30022;55.846;37.340;2023-02-20T07:20:06;48075.91;;;-143.51;100.00
44309;BME280;30022;55.846;37.340;2023-02-20T07:22:32;48176.66;;;-143.51;100.00
44309;BME280;30022;55.846;37.340;2023-02-20T07:24:58;48166.78;;;-143.51;100.00
44309;BME280;30022;55.846;37.340;2023-02-20T07:27:23;48158.88;;;-143.51;100.00
44309;BME280;30022;55.846;37.340;2023-02-20T07:29:50;47973.16;;;-143.51;100.00
44309;BME280;30022;55.846;37.340;2023-02-20T07:32:16;47988.97;;;-143.51;100.00
44309;BME280;30022;55.846;37.340;2023-02-20T07:34:48;47953.41;;;-143.51;100.00
44309;BME280;30022;55.846;37.340;2023-02-20T07:37:14;48000.81;;;-143.51;100.00
44309;BME280;30022;55.846;37.340;2023-02-20T07:39:40;48000.81;;;-143.51;100.00
44309;BME280;30022;55.846;37.340;2023-02-20T07:42:06;48075.91;;;-143.51;100.00
44309;BME280;30022;55.846;37.340;2023-02-20T07:44:43;48052.19;;;-143.51;100.00
44309;BME280;30022;55.846;37.340;2023-02-20T07:47:11;48068.00;;;-143.51;100.00
44309;BME280;30022;55.846;37.340;2023-02-20T07:49:37;48006.75;;;-143.51;100.00
44309;BME280;30022;55.846;37.340;2023-02-20T07:52:02;48014.66;;;-143.51;100.00
44309;BME280;30022;55.846;37.340;2023-02-20T07:54:28;47892.16;;;-143.51;100.00
44309;BME280;30022;55.846;37.340;2023-02-20T07:56:54;47870.44;;;-143.51;100.00
44309;BME280;30022;55.846;37.340;2023-02-20T07:59:20;47753.88;;;-143.51;100.00
44309;BME280;30022;55.846;37.340;2023-02-20T08:01:45;47767.72;;;-143.51;100.00
44309;BME280;30022;55.846;37.340;2023-02-20T08:04:11;47795.38;;;-143.51;100.00
44309;BME280;30022;55.846;37.340;2023-02-20T08:06:36;47682.78;;;-143.51;100.00
44309;BME280;30022;55.846;37.340;2023-02-20T08:09:02;47639.31;;;-143.51;100.00
44309;BME280;30022;55.846;37.340;2023-02-20T08:11:34;47783.53;;;-143.51;100.00
44309;BME280;30022;55.846;37.340;2023-02-20T08:14:00;47846.72;;;-143.51;100.00
44309;BME280;30022;55.846;37.340;2023-02-20T08:16:27;47740.06;;;-143.51;100.00
44309;BME280;30022;55.846;37.340;2023-02-20T08:18:52;47580.06;;;-143.51;100.00
44309;BME280;30022;55.846;37.340;2023-02-20T08:21:18;47508.94;;;-143.51;100.00
44309;BME280;30022;55.846;37.340;2023-02-20T08:23:44;47710.44;;;-143.51;100.00
44309;BME280;30022;55.846;37.340;2023-02-20T08:26:09;47813.16;;;-143.51;100.00
44309;BME280;30022;55.846;37.340;2023-02-20T08:28:35;47933.66;;;-143.51;100.00
44309;BME280;30022;55.846;37.340;2023-02-20T08:31:01;47848.72;;;-143.51;100.00
44309;BME280;30022;55.846;37.340;2023-02-20T08:33:27;47856.63;;;-143.51;100.00
44309;BME280;30022;55.846;37.340;2023-02-20T08:35:52;47761.78;;;-143.51;100.00
44309;BME280;30022;55.846;37.340;2023-02-20T08:38:24;47710.44;;;-143.51;100.00
44309;BME280;30022;55.846;37.340;2023-02-20T08:40:50;47674.88;;;-143.51;100.00
44309;BME280;30022;55.846;37.340;2023-02-20T08:43:16;47540.56;;;-143.51;100.00
44309;BME280;30022;55.846;37.340;2023-02-20T08:45:41;47585.97;;;-143.51;100.00
44309;BME280;30022;55.846;37.340;2023-02-20T08:48:07;47534.63;;;-143.51;100.00
44309;BME280;30022;55.846;37.340;2023-02-20T08:50:33;47516.84;;;-143.51;100.00
44309;BME280;30022;55.846;37.340;2023-02-20T08:52:59;47530.69;;;-143.51;100.00
44309;BME280;30022;55.846;37.340;2023-02-20T08:55:24;47690.69;;;-143.51;100.00
44309;BME280;30022;55.846;37.340;2023-02-20T08:57:50;47927.72;;;-143.51;100.00
44309;BME280;30022;55.846;37.340;2023-02-20T09:00:16;47917.84;;;-143.51;100.00
44309;BME280;30022;55.846;37.340;2023-02-20T09:02:43;47678.81;;;-143.51;100.00
44309;BME280;30022;55.846;37.340;2023-02-20T09:05:10;47755.88;;;-143.51;100.00
44309;BME280;30022;55.846;37.340;2023-02-20T09:07:36;47909.94;;;-143.51;100.00
44309;BME280;30022;55.846;37.340;2023-02-20T09:10:02;47801.31;;;-143.51;100.00
44309;BME280;30022;55.846;37.340;2023-02-20T09:12:31;47732.16;;;-143.51;100.00
44309;BME280;30022;55.846;37.340;2023-02-20T09:14:57;47574.13;;;-143.51;100.00
44309;BME280;30022;55.846;37.340;2023-02-20T09:17:28;47467.47;;;-143.51;100.00
44309;BME280;30022;55.846;37.340;2023-02-20T09:19:55;47424.00;;;-143.51;100.00
44309;BME280;30022;55.846;37.340;2023-02-20T09:22:21;47343.03;;;-143.51;100.00
44309;BME280;30022;55.846;37.340;2023-02-20T09:24:47;47307.47;;;-143.51;100.00
44309;BME280;30022;55.846;37.340;2023-02-20T09:27:13;47418.09;;;-143.51;100.00
44309;BME280;30022;55.846;37.340;2023-02-20T09:30:15;47491.16;;;-143.51;100.00
44309;BME280;30022;55.846;37.340;2023-02-20T09:32:43;47364.75;;;-143.51;100.00
44309;BME280;30022;55.846;37.340;2023-02-20T09:35:13;47392.41;;;-143.51;100.00
44309;BME280;30022;55.846;37.340;2023-02-20T09:37:39;47317.34;;;-143.51;100.00
44309;BME280;30022;55.846;37.340;2023-02-20T09:40:05;47216.63;;;-143.51;100.00
44309;BME280;30022;55.846;37.340;2023-02-20T09:50:17;47398.34;;;-143.51;100.00
44309;BME280;30022;55.846;37.340;2023-02-20T09:52:48;47465.50;;;-143.51;100.00
44309;BME280;30022;55.846;37.340;2023-02-20T09:55:19;47532.66;;;-143.51;100.00
44309;BME280;30022;55.846;37.340;2023-02-20T09:57:49;47566.22;;;-143.51;100.00
44309;BME280;30022;55.846;37.340;2023-02-20T10:00:24;47534.63;;;-143.51;100.00
44309;BME280;30022;55.846;37.340;2023-02-20T10:05:32;47491.16;;;-143.51;100.00
44309;BME280;30022;55.846;37.340;2023-02-20T10:07:58;47501.03;;;-143.51;100.00
44309;BME280;30022;55.846;37.340;2023-02-20T10:10:31;47366.72;;;-143.51;100.00
44309;BME280;30022;55.846;37.340;2023-02-20T10:21:02;47364.75;;;-143.51;100.00
44309;BME280;30022;55.846;37.340;2023-02-20T10:26:00;47287.72;;;-143.51;100.00
44309;BME280;30022;55.846;37.340;2023-02-20T10:28:28;47514.88;;;-143.51;100.00
44309;BME280;30022;55.846;37.340;2023-02-20T10:34:02;47370.69;;;-143.51;100.00
44309;BME280;30022;55.846;37.340;2023-02-20T10:36:16;47281.78;;;-143.51;100.00
44309;BME280;30022;55.846;37.340;2023-02-20T10:41:29;47481.28;;;-143.51;100.00
44309;BME280;30022;55.846;37.340;2023-02-20T10:44:08;47441.78;;;-143.51;100.00
44309;BME280;30022;55.846;37.340;2023-02-20T10:49:04;47463.50;;;-143.51;100.00
44309;BME280;30022;55.846;37.340;2023-02-20T10:51:37;47321.28;;;-143.51;100.00
44309;BME280;30022;55.846;37.340;2023-02-20T10:54:07;47341.06;;;-143.51;100.00
44309;BME280;30022;55.846;37.340;2023-02-20T10:56:42;47345.00;;;-143.51;100.00
44309;BME280;30022;55.846;37.340;2023-02-20T11:01:41;47171.19;;;-143.51;100.00
44309;BME280;30022;55.846;37.340;2023-02-20T11:06:43;47094.16;;;-143.51;100.00
44309;BME280;30022;55.846;37.340;2023-02-20T11:09:09;47139.59;;;-143.51;100.00
44309;BME280;30022;55.846;37.340;2023-02-20T11:11:36;47187.00;;;-143.51;100.00
44309;BME280;30022;55.846;37.340;2023-02-20T11:14:11;47222.53;;;-143.51;100.00
44309;BME280;30022;55.846;37.340;2023-02-20T11:16:45;47167.25;;;-143.51;100.00
44309;BME280;30022;55.846;37.340;2023-02-20T11:19:20;47246.25;;;-143.51;100.00
44309;BME280;30022;55.846;37.340;2023-02-20T11:21:47;47305.50;;;-143.51;100.00
44309;BME280;30022;55.846;37.340;2023-02-20T11:24:30;47230.44;;;-143.51;100.00
44309;BME280;30022;55.846;37.340;2023-02-20T11:26:59;47198.84;;;-143.51;100.00
44309;BME280;30022;55.846;37.340;2023-02-20T11:29:27;47242.28;;;-143.51;100.00
44309;BME280;30022;55.846;37.340;2023-02-20T11:31:55;47181.06;;;-143.51;100.00
44309;BME280;30022;55.846;37.340;2023-02-20T11:34:38;47157.34;;;-143.51;100.00
44309;BME280;30022;55.846;37.340;2023-02-20T11:37:04;47119.84;;;-143.51;100.00
44309;BME280;30022;55.846;37.340;2023-02-20T11:39:30;47133.66;;;-143.51;100.00
44309;BME280;30022;55.846;37.340;2023-02-20T11:42:18;47088.22;;;-143.51;100.00
44309;BME280;30022;55.846;37.340;2023-02-20T11:44:44;47080.34;;;-143.51;100.00
44309;BME280;30022;55.846;37.340;2023-02-20T11:49:45;47163.28;;;-143.51;100.00
44309;BME280;30022;55.846;37.340;2023-02-20T11:52:16;47159.34;;;-143.51;100.00
44309;BME280;30022;55.846;37.340;2023-02-20T11:54:42;47100.09;;;-143.51;100.00
44309;BME280;30022;55.846;37.340;2023-02-20T11:59:37;47098.09;;;-143.51;100.00
44309;BME280;30022;55.846;37.340;2023-02-20T12:04:42;47070.47;;;-143.51;100.00
44309;BME280;30022;55.846;37.340;2023-02-20T12:07:21;47092.19;;;-143.51;100.00
44309;BME280;30022;55.846;37.340;2023-02-20T12:09:50;47074.41;;;-143.51;100.00
44309;BME280;30022;55.846;37.340;2023-02-20T12:12:17;47034.91;;;-143.51;100.00
44309;BME280;30022;55.846;37.340;2023-02-20T12:14:50;47111.94;;;-143.51;100.00
44309;BME280;30022;55.846;37.340;2023-02-20T12:20:36;47220.56;;;-143.51;100.00
44309;BME280;30022;55.846;37.340;2023-02-20T12:22:37;47232.41;;;-143.51;100.00
44309;BME280;30022;55.846;37.340;2023-02-20T12:27:55;47258.09;;;-143.51;100.00
44309;BME280;30022;55.846;37.340;2023-02-20T12:32:57;47188.97;;;-143.51;100.00
44309;BME280;30022;55.846;37.340;2023-02-20T12:35:31;47250.19;;;-143.51;100.00
44309;BME280;30022;55.846;37.340;2023-02-20T12:46:04;47169.22;;;-143.51;100.00
44309;BME280;30022;55.846;37.340;2023-02-20T12:56:35;47149.47;;;-143.51;100.00
44309;BME280;30022;55.846;37.340;2023-02-20T13:01:41;47301.53;;;-143.51;100.00
44309;BME280;30022;55.846;37.340;2023-02-20T13:04:18;47350.94;;;-143.51;100.00
44309;BME280;30022;55.846;37.340;2023-02-20T13:09:53;47234.38;;;-143.51;100.00
44309;BME280;30022;55.846;37.340;2023-02-20T13:12:17;47163.28;;;-143.51;100.00
44309;BME280;30022;55.846;37.340;2023-02-20T13:17:34;47226.50;;;-143.51;100.00
44309;BME280;30022;55.846;37.340;2023-02-20T13:20:05;47175.13;;;-143.51;100.00
44309;BME280;30022;55.846;37.340;2023-02-20T13:22:34;47161.31;;;-143.51;100.00
44309;BME280;30022;55.846;37.340;2023-02-20T13:27:48;47321.28;;;-143.51;100.00
44309;BME280;30022;55.846;37.340;2023-02-20T13:30:24;47333.16;;;-143.51;100.00
44309;BME280;30022;55.846;37.340;2023-02-20T13:33:38;47420.06;;;-143.51;100.00
44309;BME280;30022;55.846;37.340;2023-02-20T13:38:10;47425.97;;;-143.51;100.00
44309;BME280;30022;55.846;37.340;2023-02-20T13:45:46;47266.00;;;-143.51;100.00
44309;BME280;30022;55.846;37.340;2023-02-20T13:48:16;47234.38;;;-143.51;100.00
44309;BME280;30022;55.846;37.340;2023-02-20T13:50:42;47250.19;;;-143.51;100.00
44309;BME280;30022;55.846;37.340;2023-02-20T13:53:08;47179.09;;;-143.51;100.00
44309;BME280;30022;55.846;37.340;2023-02-20T13:55:34;47171.19;;;-143.51;100.00
44309;BME280;30022;55.846;37.340;2023-02-20T14:05:44;47060.59;;;-143.51;100.00
44309;BME280;30022;55.846;37.340;2023-02-20T14:08:18;47068.47;;;-143.51;100.00
44309;BME280;30022;55.846;37.340;2023-02-20T14:10:44;47060.59;;;-143.51;100.00
44309;BME280;30022;55.846;37.340;2023-02-20T14:13:17;47082.31;;;-143.51;100.00
44309;BME280;30022;55.846;37.340;2023-02-20T14:15:44;47100.09;;;-143.51;100.00
44309;BME280;30022;55.846;37.340;2023-02-20T14:18:24;47131.69;;;-143.51;100.00
44309;BME280;30022;55.846;37.340;2023-02-20T14:20:51;47145.50;;;-143.51;100.00
44309;BME280;30022;55.846;37.340;2023-02-20T14:23:22;47106.00;;;-143.51;100.00
44309;BME280;30022;55.846;37.340;2023-02-20T14:25:55;47094.16;;;-143.51;100.00
44309;BME280;30022;55.846;37.340;2023-02-20T14:28:22;47106.00;;;-143.51;100.00
44309;BME280;30022;55.846;37.340;2023-02-20T14:31:01;47109.97;;;-143.51;100.00
44309;BME280;30022;55.846;37.340;2023-02-20T14:33:27;47153.41;;;-143.51;100.00
44309;BME280;30022;55.846;37.340;2023-02-20T14:36:00;47163.28;;;-143.51;100.00